sensor_id;sensor_type;location;lat;lon;timestamp;P1;durP1;ratioP1;P2;durP2;ratioP2
45909;SDS011;31622;55.416;37.840;2023-07-20T00:00:49;2.88;;;1.60;;
45909;SDS011;31622;55.416;37.840;2023-07-20T00:03:19;2.30;;;1.30;;
45909;SDS011;31622;55.416;37.840;2023-07-20T00:05:53;4.88;;;1.40;;
45909;SDS011;31622;55.416;37.840;2023-07-20T00:08:18;3.15;;;1.42;;
45909;SDS011;31622;55.416;37.840;2023-07-20T00:10:44;2.38;;;1.30;;
45909;SDS011;31622;55.416;37.840;2023-07-20T00:13:13;2.80;;;1.50;;
45909;SDS011;31622;55.416;37.840;2023-07-20T00:15:38;3.40;;;1.20;;
45909;SDS011;31622;55.416;37.840;2023-07-20T00:18:05;3.10;;;1.30;;
45909;SDS011;31622;55.416;37.840;2023-07-20T00:20:30;3.20;;;1.27;;
45909;SDS011;31622;55.416;37.840;2023-07-20T00:22:56;3.03;;;1.40;;
45909;SDS011;31622;55.416;37.840;2023-07-20T00:25:23;1.75;;;1.02;;
45909;SDS011;31622;55.416;37.840;2023-07-20T00:27:49;2.28;;;1.25;;
45909;SDS011;31622;55.416;37.840;2023-07-20T00:30:14;1.70;;;0.90;;
45909;SDS011;31622;55.416;37.840;2023-07-20T00:32:42;4.45;;;1.23;;
45909;SDS011;31622;55.416;37.840;2023-07-20T00:35:09;3.53;;;1.10;;
45909;SDS011;31622;55.416;37.840;2023-07-20T00:37:35;2.70;;;1.00;;
45909;SDS011;31622;55.416;37.840;2023-07-20T00:40:00;1.73;;;0.98;;
45909;SDS011;31622;55.416;37.840;2023-07-20T00:42:29;4.05;;;0.98;;
45909;SDS011;31622;55.416;37.840;2023-07-20T00:44:55;2.35;;;1.10;;
45909;SDS011;31622;55.416;37.840;2023-07-20T00:47:21;3.17;;;1.08;;
45909;SDS011;31622;55.416;37.840;2023-07-20T00:49:47;2.33;;;0.90;;
45909;SDS011;31622;55.416;37.840;2023-07-20T00:52:13;2.40;;;0.98;;
45909;SDS011;31622;55.416;37.840;2023-07-20T00:54:41;1.20;;;0.82;;
45909;SDS011;31622;55.416;37.840;2023-07-20T00:57:07;3.85;;;1.05;;
45909;SDS011;31622;55.416;37.840;2023-07-20T00:59:36;1.90;;;0.98;;
45909;SDS011;31622;55.416;37.840;2023-07-20T01:02:02;2.35;;;0.90;;
45909;SDS011;31622;55.416;37.840;2023-07-20T01:04:28;1.70;;;0.80;;
45909;SDS011;31622;55.416;37.840;2023-07-20T01:07:57;3.30;;;1.00;;
45909;SDS011;31622;55.416;37.840;2023-07-20T01:10:06;2.03;;;0.80;;
45909;SDS011;31622;55.416;37.840;2023-07-20T01:15:07;1.83;;;0.90;;
45909;SDS011;31622;55.416;37.840;2023-07-20T01:17:34;2.10;;;0.80;;
45909;SDS011;31622;55.416;37.840;2023-07-20T01:20:00;2.40;;;0.93;;
45909;SDS011;31622;55.416;37.840;2023-07-20T01:25:21;2.92;;;0.80;;
45909;SDS011;31622;55.416;37.840;2023-07-20T01:28:16;1.63;;;0.90;;
45909;SDS011;31622;55.416;37.840;2023-07-20T01:30:50;3.40;;;1.02;;
45909;SDS011;31622;55.416;37.840;2023-07-20T01:33:21;2.53;;;0.80;;
45909;SDS011;31622;55.416;37.840;2023-07-20T01:35:49;3.45;;;0.88;;
45909;SDS011;31622;55.416;37.840;2023-07-20T01:38:18;2.97;;;0.75;;
45909;SDS011;31622;55.416;37.840;2023-07-20T01:40:44;1.55;;;0.65;;
45909;SDS011;31622;55.416;37.840;2023-07-20T01:43:10;3.53;;;0.80;;
45909;SDS011;31622;55.416;37.840;2023-07-20T01:45:37;3.38;;;0.93;;
45909;SDS011;31622;55.416;37.840;2023-07-20T01:48:02;1.60;;;0.85;;
45909;SDS011;31622;55.416;37.840;2023-07-20T01:50:29;4.22;;;1.00;;
45909;SDS011;31622;55.416;37.840;2023-07-20T01:52:54;1.98;;;0.70;;
45909;SDS011;31622;55.416;37.840;2023-07-20T01:55:20;2.58;;;0.80;;
45909;SDS011;31622;55.416;37.840;2023-07-20T01:57:46;2.25;;;0.88;;
45909;SDS011;31622;55.416;37.840;2023-07-20T02:00:12;3.53;;;1.13;;
45909;SDS011;31622;55.416;37.840;2023-07-20T02:02:41;2.00;;;0.80;;
45909;SDS011;31622;55.416;37.840;2023-07-20T02:05:07;1.77;;;0.65;;
45909;SDS011;31622;55.416;37.840;2023-07-20T02:07:33;2.28;;;0.90;;
45909;SDS011;31622;55.416;37.840;2023-07-20T02:09:59;3.28;;;0.70;;
45909;SDS011;31622;55.416;37.840;2023-07-20T02:12:24;2.72;;;0.75;;
45909;SDS011;31622;55.416;37.840;2023-07-20T02:14:50;1.63;;;0.73;;
45909;SDS011;31622;55.416;37.840;2023-07-20T02:17:16;3.03;;;1.00;;
45909;SDS011;31622;55.416;37.840;2023-07-20T02:19:42;1.48;;;0.82;;
45909;SDS011;31622;55.416;37.840;2023-07-20T02:22:08;2.33;;;1.00;;
45909;SDS011;31622;55.416;37.840;2023-07-20T02:24:33;2.20;;;0.60;;
45909;SDS011;31622;55.416;37.840;2023-07-20T02:26:59;2.55;;;0.85;;
45909;SDS011;31622;55.416;37.840;2023-07-20T02:29:25;1.55;;;0.70;;
45909;SDS011;31622;55.416;37.840;2023-07-20T02:31:51;2.55;;;0.88;;
45909;SDS011;31622;55.416;37.840;2023-07-20T02:34:16;8.30;;;0.93;;
45909;SDS011;31622;55.416;37.840;2023-07-20T02:36:42;3.15;;;0.60;;
45909;SDS011;31622;55.416;37.840;2023-07-20T02:39:08;1.33;;;0.60;;
45909;SDS011;31622;55.416;37.840;2023-07-20T02:41:34;2.60;;;0.90;;
45909;SDS011;31622;55.416;37.840;2023-07-20T02:44:00;1.58;;;0.75;;
45909;SDS011;31622;55.416;37.840;2023-07-20T02:46:26;3.13;;;0.80;;
45909;SDS011;31622;55.416;37.840;2023-07-20T02:48:52;1.55;;;0.70;;
45909;SDS011;31622;55.416;37.840;2023-07-20T02:51:18;1.08;;;0.70;;
45909;SDS011;31622;55.416;37.840;2023-07-20T02:53:43;1.20;;;0.70;;
45909;SDS011;31622;55.416;37.840;2023-07-20T02:56:09;6.88;;;0.70;;
45909;SDS011;31622;55.416;37.840;2023-07-20T02:58:35;2.03;;;0.70;;
45909;SDS011;31622;55.416;37.840;2023-07-20T03:01:03;3.90;;;0.70;;
45909;SDS011;31622;55.416;37.840;2023-07-20T03:03:29;1.30;;;0.60;;
45909;SDS011;31622;55.416;37.840;2023-07-20T03:05:55;1.35;;;0.77;;
45909;SDS011;31622;55.416;37.840;2023-07-20T03:08:24;1.45;;;0.70;;
45909;SDS011;31622;55.416;37.840;2023-07-20T03:10:50;1.80;;;0.75;;
45909;SDS011;31622;55.416;37.840;2023-07-20T03:13:15;2.67;;;0.80;;
45909;SDS011;31622;55.416;37.840;2023-07-20T03:15:41;1.90;;;0.80;;
45909;SDS011;31622;55.416;37.840;2023-07-20T03:18:08;2.25;;;0.70;;
45909;SDS011;31622;55.416;37.840;2023-07-20T03:20:35;1.10;;;0.68;;
45909;SDS011;31622;55.416;37.840;2023-07-20T03:23:01;5.18;;;0.70;;
45909;SDS011;31622;55.416;37.840;2023-07-20T03:25:27;2.97;;;0.60;;
45909;SDS011;31622;55.416;37.840;2023-07-20T03:27:53;2.97;;;0.90;;
45909;SDS011;31622;55.416;37.840;2023-07-20T03:30:19;4.22;;;1.00;;
45909;SDS011;31622;55.416;37.840;2023-07-20T03:32:45;1.42;;;0.73;;
45909;SDS011;31622;55.416;37.840;2023-07-20T03:35:11;1.90;;;0.75;;
45909;SDS011;31622;55.416;37.840;2023-07-20T03:37:36;1.77;;;0.70;;
45909;SDS011;31622;55.416;37.840;2023-07-20T03:40:03;1.95;;;0.70;;
45909;SDS011;31622;55.416;37.840;2023-07-20T03:42:30;1.63;;;0.55;;
45909;SDS011;31622;55.416;37.840;2023-07-20T03:44:56;1.08;;;0.52;;
45909;SDS011;31622;55.416;37.840;2023-07-20T03:47:21;4.72;;;0.90;;
45909;SDS011;31622;55.416;37.840;2023-07-20T03:49:47;2.72;;;0.80;;
45909;SDS011;31622;55.416;37.840;2023-07-20T03:52:13;1.17;;;0.65;;
45909;SDS011;31622;55.416;37.840;2023-07-20T03:54:39;1.33;;;0.60;;
45909;SDS011;31622;55.416;37.840;2023-07-20T03:57:04;2.83;;;0.70;;
45909;SDS011;31622;55.416;37.840;2023-07-20T03:59:30;1.10;;;0.60;;
45909;SDS011;31622;55.416;37.840;2023-07-20T04:01:56;2.58;;;0.60;;
45909;SDS011;31622;55.416;37.840;2023-07-20T04:04:22;4.20;;;0.70;;
45909;SDS011;31622;55.416;37.840;2023-07-20T04:06:48;1.25;;;0.70;;
45909;SDS011;31622;55.416;37.840;2023-07-20T04:09:13;1.67;;;0.60;;
45909;SDS011;31622;55.416;37.840;2023-07-20T04:11:39;1.80;;;0.60;;
45909;SDS011;31622;55.416;37.840;2023-07-20T04:14:05;1.80;;;0.75;;
45909;SDS011;31622;55.416;37.840;2023-07-20T04:16:31;1.73;;;0.70;;
45909;SDS011;31622;55.416;37.840;2023-07-20T04:18:58;1.30;;;0.80;;
45909;SDS011;31622;55.416;37.840;2023-07-20T04:21:26;1.70;;;0.50;;
45909;SDS011;31622;55.416;37.840;2023-07-20T04:23:52;1.65;;;0.75;;
45909;SDS011;31622;55.416;37.840;2023-07-20T04:26:18;1.63;;;1.00;;
45909;SDS011;31622;55.416;37.840;2023-07-20T04:28:44;2.33;;;0.80;;
45909;SDS011;31622;55.416;37.840;2023-07-20T04:31:17;4.20;;;0.90;;
45909;SDS011;31622;55.416;37.840;2023-07-20T04:33:43;2.08;;;0.88;;
45909;SDS011;31622;55.416;37.840;2023-07-20T04:36:09;2.15;;;0.73;;
45909;SDS011;31622;55.416;37.840;2023-07-20T04:38:35;2.75;;;0.85;;
45909;SDS011;31622;55.416;37.840;2023-07-20T04:41:14;6.53;;;2.83;;
45909;SDS011;31622;55.416;37.840;2023-07-20T04:43:44;6.95;;;2.85;;
45909;SDS011;31622;55.416;37.840;2023-07-20T04:46:11;11.50;;;3.17;;
45909;SDS011;31622;55.416;37.840;2023-07-20T04:48:38;6.20;;;2.47;;
45909;SDS011;31622;55.416;37.840;2023-07-20T04:51:05;5.28;;;2.70;;
45909;SDS011;31622;55.416;37.840;2023-07-20T04:53:32;8.50;;;2.20;;
45909;SDS011;31622;55.416;37.840;2023-07-20T04:55:58;4.20;;;2.50;;
45909;SDS011;31622;55.416;37.840;2023-07-20T04:58:24;5.05;;;2.30;;
45909;SDS011;31622;55.416;37.840;2023-07-20T05:00:51;4.95;;;1.70;;
45909;SDS011;31622;55.416;37.840;2023-07-20T05:03:18;4.25;;;1.80;;
45909;SDS011;31622;55.416;37.840;2023-07-20T05:05:44;4.15;;;1.70;;
45909;SDS011;31622;55.416;37.840;2023-07-20T05:08:11;3.03;;;1.67;;
45909;SDS011;31622;55.416;37.840;2023-07-20T05:10:36;3.45;;;1.40;;
45909;SDS011;31622;55.416;37.840;2023-07-20T05:13:02;5.38;;;1.40;;
45909;SDS011;31622;55.416;37.840;2023-07-20T05:15:28;3.13;;;1.40;;
45909;SDS011;31622;55.416;37.840;2023-07-20T05:17:55;2.70;;;1.10;;
45909;SDS011;31622;55.416;37.840;2023-07-20T05:20:23;2.88;;;1.30;;
45909;SDS011;31622;55.416;37.840;2023-07-20T05:22:49;3.60;;;1.40;;
45909;SDS011;31622;55.416;37.840;2023-07-20T05:25:15;5.10;;;1.27;;
45909;SDS011;31622;55.416;37.840;2023-07-20T05:27:43;4.28;;;1.60;;
45909;SDS011;31622;55.416;37.840;2023-07-20T05:30:09;3.28;;;1.40;;
45909;SDS011;31622;55.416;37.840;2023-07-20T05:32:35;3.22;;;1.23;;
45909;SDS011;31622;55.416;37.840;2023-07-20T05:35:01;1.92;;;1.00;;
45909;SDS011;31622;55.416;37.840;2023-07-20T05:37:27;3.17;;;1.42;;
45909;SDS011;31622;55.416;37.840;2023-07-20T05:39:53;4.10;;;1.00;;
45909;SDS011;31622;55.416;37.840;2023-07-20T05:42:18;2.58;;;1.00;;
45909;SDS011;31622;55.416;37.840;2023-07-20T05:44:44;2.85;;;0.98;;
45909;SDS011;31622;55.416;37.840;2023-07-20T05:47:10;3.45;;;1.05;;
45909;SDS011;31622;55.416;37.840;2023-07-20T05:49:36;2.28;;;0.98;;
45909;SDS011;31622;55.416;37.840;2023-07-20T05:52:01;2.55;;;0.98;;
45909;SDS011;31622;55.416;37.840;2023-07-20T05:54:27;4.03;;;0.80;;
45909;SDS011;31622;55.416;37.840;2023-07-20T05:56:54;1.70;;;0.80;;
45909;SDS011;31622;55.416;37.840;2023-07-20T05:59:19;2.13;;;0.80;;
45909;SDS011;31622;55.416;37.840;2023-07-20T06:01:45;6.20;;;1.50;;
45909;SDS011;31622;55.416;37.840;2023-07-20T06:04:13;3.40;;;1.40;;
45909;SDS011;31622;55.416;37.840;2023-07-20T13:46:47;4.50;;;2.00;;
45909;SDS011;31622;55.416;37.840;2023-07-20T13:49:13;7.03;;;2.63;;
45909;SDS011;31622;55.416;37.840;2023-07-20T13:51:41;6.32;;;2.28;;
45909;SDS011;31622;55.416;37.840;2023-07-20T13:54:07;5.20;;;1.83;;
45909;SDS011;31622;55.416;37.840;2023-07-20T13:56:33;6.60;;;2.42;;
45909;SDS011;31622;55.416;37.840;2023-07-20T13:58:59;5.38;;;1.80;;
45909;SDS011;31622;55.416;37.840;2023-07-20T14:01:25;7.63;;;2.40;;
45909;SDS011;31622;55.416;37.840;2023-07-20T14:03:50;8.35;;;2.17;;
45909;SDS011;31622;55.416;37.840;2023-07-20T14:06:16;4.85;;;1.85;;
45909;SDS011;31622;55.416;37.840;2023-07-20T14:08:42;7.00;;;1.83;;
45909;SDS011;31622;55.416;37.840;2023-07-20T14:11:14;4.18;;;1.63;;
45909;SDS011;31622;55.416;37.840;2023-07-20T14:13:40;10.68;;;2.08;;
45909;SDS011;31622;55.416;37.840;2023-07-20T14:16:06;6.60;;;2.17;;
45909;SDS011;31622;55.416;37.840;2023-07-20T14:18:32;3.53;;;1.80;;
45909;SDS011;31622;55.416;37.840;2023-07-20T14:20:58;5.90;;;1.88;;
45909;SDS011;31622;55.416;37.840;2023-07-20T14:23:24;5.35;;;1.92;;
45909;SDS011;31622;55.416;37.840;2023-07-20T14:25:50;4.93;;;1.70;;
45909;SDS011;31622;55.416;37.840;2023-07-20T14:28:15;3.63;;;1.60;;
45909;SDS011;31622;55.416;37.840;2023-07-20T14:30:41;3.78;;;1.60;;
45909;SDS011;31622;55.416;37.840;2023-07-20T14:33:07;4.20;;;1.55;;
45909;SDS011;31622;55.416;37.840;2023-07-20T14:35:33;3.35;;;1.30;;
45909;SDS011;31622;55.416;37.840;2023-07-20T14:37:59;4.88;;;1.70;;
45909;SDS011;31622;55.416;37.840;2023-07-20T14:40:26;9.13;;;1.92;;
45909;SDS011;31622;55.416;37.840;2023-07-20T14:42:52;6.18;;;1.83;;
45909;SDS011;31622;55.416;37.840;2023-07-20T14:45:18;4.60;;;1.90;;
45909;SDS011;31622;55.416;37.840;2023-07-20T14:47:44;6.35;;;1.90;;
45909;SDS011;31622;55.416;37.840;2023-07-20T14:50:10;5.57;;;1.98;;
45909;SDS011;31622;55.416;37.840;2023-07-20T14:52:36;4.18;;;2.03;;
45909;SDS011;31622;55.416;37.840;2023-07-20T14:55:02;4.38;;;1.70;;
45909;SDS011;31622;55.416;37.840;2023-07-20T14:57:28;3.90;;;1.73;;
45909;SDS011;31622;55.416;37.840;2023-07-20T14:59:54;5.95;;;1.60;;
45909;SDS011;31622;55.416;37.840;2023-07-20T15:02:20;5.22;;;1.98;;
45909;SDS011;31622;55.416;37.840;2023-07-20T15:04:46;5.88;;;2.28;;
45909;SDS011;31622;55.416;37.840;2023-07-20T15:07:19;5.60;;;2.05;;
45909;SDS011;31622;55.416;37.840;2023-07-20T15:09:46;4.90;;;2.03;;
45909;SDS011;31622;55.416;37.840;2023-07-20T15:12:12;9.15;;;2.55;;
45909;SDS011;31622;55.416;37.840;2023-07-20T15:14:41;8.73;;;2.75;;
45909;SDS011;31622;55.416;37.840;2023-07-20T15:17:08;6.25;;;2.55;;
45909;SDS011;31622;55.416;37.840;2023-07-20T15:19:37;7.07;;;2.63;;
45909;SDS011;31622;55.416;37.840;2023-07-20T15:22:03;4.72;;;2.30;;
45909;SDS011;31622;55.416;37.840;2023-07-20T15:24:30;6.45;;;3.05;;
45909;SDS011;31622;55.416;37.840;2023-07-20T15:26:55;6.20;;;2.20;;
45909;SDS011;31622;55.416;37.840;2023-07-20T15:29:22;6.15;;;2.85;;
45909;SDS011;31622;55.416;37.840;2023-07-20T15:31:49;5.63;;;2.20;;
45909;SDS011;31622;55.416;37.840;2023-07-20T15:34:14;4.90;;;2.67;;
45909;SDS011;31622;55.416;37.840;2023-07-20T15:36:40;4.75;;;2.38;;
45909;SDS011;31622;55.416;37.840;2023-07-20T15:39:07;6.25;;;2.38;;
45909;SDS011;31622;55.416;37.840;2023-07-20T15:41:33;4.50;;;2.10;;
45909;SDS011;31622;55.416;37.840;2023-07-20T15:43:59;4.82;;;2.13;;
45909;SDS011;31622;55.416;37.840;2023-07-20T15:49:05;4.72;;;2.17;;
45909;SDS011;31622;55.416;37.840;2023-07-20T15:51:32;4.15;;;2.03;;
45909;SDS011;31622;55.416;37.840;2023-07-20T15:54:02;7.30;;;2.08;;
45909;SDS011;31622;55.416;37.840;2023-07-20T15:56:28;3.95;;;2.10;;
45909;SDS011;31622;55.416;37.840;2023-07-20T15:58:54;4.95;;;2.22;;
45909;SDS011;31622;55.416;37.840;2023-07-20T16:01:19;3.80;;;2.28;;
45909;SDS011;31622;55.416;37.840;2023-07-20T16:03:45;4.95;;;2.15;;
45909;SDS011;31622;55.416;37.840;2023-07-20T16:06:11;4.03;;;1.90;;
45909;SDS011;31622;55.416;37.840;2023-07-20T16:08:36;3.75;;;1.65;;
45909;SDS011;31622;55.416;37.840;2023-07-20T16:11:02;3.53;;;1.85;;
45909;SDS011;31622;55.416;37.840;2023-07-20T16:13:28;3.53;;;1.80;;
45909;SDS011;31622;55.416;37.840;2023-07-20T16:15:54;4.50;;;2.20;;
45909;SDS011;31622;55.416;37.840;2023-07-20T16:18:21;5.05;;;1.90;;
45909;SDS011;31622;55.416;37.840;2023-07-20T16:20:47;5.18;;;1.90;;
45909;SDS011;31622;55.416;37.840;2023-07-20T16:23:13;5.28;;;1.90;;
45909;SDS011;31622;55.416;37.840;2023-07-20T16:25:39;5.25;;;1.70;;
45909;SDS011;31622;55.416;37.840;2023-07-20T16:28:04;3.28;;;1.70;;
45909;SDS011;31622;55.416;37.840;2023-07-20T16:30:31;4.43;;;2.15;;
45909;SDS011;31622;55.416;37.840;2023-07-20T16:32:57;5.03;;;1.90;;
45909;SDS011;31622;55.416;37.840;2023-07-20T16:35:22;3.08;;;1.60;;
45909;SDS011;31622;55.416;37.840;2023-07-20T16:37:48;3.60;;;1.60;;
45909;SDS011;31622;55.416;37.840;2023-07-20T16:40:15;3.15;;;1.67;;
45909;SDS011;31622;55.416;37.840;2023-07-20T16:42:41;4.43;;;1.75;;
45909;SDS011;31622;55.416;37.840;2023-07-20T16:45:07;2.78;;;1.55;;
45909;SDS011;31622;55.416;37.840;2023-07-20T16:47:34;6.00;;;1.58;;
45909;SDS011;31622;55.416;37.840;2023-07-20T16:50:00;4.45;;;2.05;;
45909;SDS011;31622;55.416;37.840;2023-07-20T16:52:26;6.70;;;1.73;;
45909;SDS011;31622;55.416;37.840;2023-07-20T16:54:52;4.25;;;1.83;;
45909;SDS011;31622;55.416;37.840;2023-07-20T16:57:18;4.35;;;1.63;;
45909;SDS011;31622;55.416;37.840;2023-07-20T16:59:46;7.38;;;1.90;;
45909;SDS011;31622;55.416;37.840;2023-07-20T17:02:11;4.20;;;1.60;;
45909;SDS011;31622;55.416;37.840;2023-07-20T17:04:37;4.88;;;1.83;;
45909;SDS011;31622;55.416;37.840;2023-07-20T17:07:03;3.45;;;2.03;;
45909;SDS011;31622;55.416;37.840;2023-07-20T17:09:29;4.82;;;2.35;;
45909;SDS011;31622;55.416;37.840;2023-07-20T17:11:57;8.13;;;2.13;;
45909;SDS011;31622;55.416;37.840;2023-07-20T17:14:23;3.78;;;2.10;;
45909;SDS011;31622;55.416;37.840;2023-07-20T17:16:49;3.28;;;2.22;;
45909;SDS011;31622;55.416;37.840;2023-07-20T17:19:14;5.55;;;2.20;;
45909;SDS011;31622;55.416;37.840;2023-07-20T17:21:40;5.93;;;2.40;;
45909;SDS011;31622;55.416;37.840;2023-07-20T17:24:06;4.70;;;2.65;;
45909;SDS011;31622;55.416;37.840;2023-07-20T17:26:32;5.93;;;3.13;;
45909;SDS011;31622;55.416;37.840;2023-07-20T17:28:58;6.85;;;2.90;;
45909;SDS011;31622;55.416;37.840;2023-07-20T17:31:23;5.53;;;2.90;;
45909;SDS011;31622;55.416;37.840;2023-07-20T17:33:53;5.95;;;3.15;;
45909;SDS011;31622;55.416;37.840;2023-07-20T17:36:20;8.18;;;3.25;;
45909;SDS011;31622;55.416;37.840;2023-07-20T17:38:47;8.30;;;3.95;;
45909;SDS011;31622;55.416;37.840;2023-07-20T17:41:13;9.00;;;3.75;;
45909;SDS011;31622;55.416;37.840;2023-07-20T17:43:39;7.97;;;3.30;;
45909;SDS011;31622;55.416;37.840;2023-07-20T17:46:05;5.60;;;3.42;;
45909;SDS011;31622;55.416;37.840;2023-07-20T17:48:31;5.30;;;3.50;;
45909;SDS011;31622;55.416;37.840;2023-07-20T17:50:57;7.43;;;3.25;;
45909;SDS011;31622;55.416;37.840;2023-07-20T17:53:23;5.55;;;3.35;;
45909;SDS011;31622;55.416;37.840;2023-07-20T17:55:51;5.88;;;3.60;;
45909;SDS011;31622;55.416;37.840;2023-07-20T17:58:16;7.30;;;2.80;;
45909;SDS011;31622;55.416;37.840;2023-07-20T18:00:42;6.50;;;2.88;;
45909;SDS011;31622;55.416;37.840;2023-07-20T18:03:08;6.78;;;2.90;;
45909;SDS011;31622;55.416;37.840;2023-07-20T18:05:34;6.18;;;2.75;;
45909;SDS011;31622;55.416;37.840;2023-07-20T18:08:00;5.65;;;2.80;;
45909;SDS011;31622;55.416;37.840;2023-07-20T18:10:26;6.13;;;3.38;;
45909;SDS011;31622;55.416;37.840;2023-07-20T18:12:52;4.53;;;2.90;;
45909;SDS011;31622;55.416;37.840;2023-07-20T18:15:19;6.60;;;2.88;;
45909;SDS011;31622;55.416;37.840;2023-07-20T18:17:44;3.45;;;2.40;;
45909;SDS011;31622;55.416;37.840;2023-07-20T18:20:10;5.57;;;3.10;;
45909;SDS011;31622;55.416;37.840;2023-07-20T18:22:36;4.47;;;2.90;;
45909;SDS011;31622;55.416;37.840;2023-07-20T18:25:02;6.28;;;3.28;;
45909;SDS011;31622;55.416;37.840;2023-07-20T18:27:30;7.75;;;3.40;;
45909;SDS011;31622;55.416;37.840;2023-07-20T18:29:56;8.02;;;2.88;;
45909;SDS011;31622;55.416;37.840;2023-07-20T18:32:22;4.85;;;2.47;;
45909;SDS011;31622;55.416;37.840;2023-07-20T18:34:48;6.45;;;2.40;;
45909;SDS011;31622;55.416;37.840;2023-07-20T18:37:14;3.50;;;2.70;;
45909;SDS011;31622;55.416;37.840;2023-07-20T18:39:47;4.45;;;2.40;;
45909;SDS011;31622;55.416;37.840;2023-07-20T18:42:13;4.80;;;2.88;;
45909;SDS011;31622;55.416;37.840;2023-07-20T18:44:39;6.00;;;2.67;;
45909;SDS011;31622;55.416;37.840;2023-07-20T18:47:05;5.28;;;2.50;;
45909;SDS011;31622;55.416;37.840;2023-07-20T18:49:31;3.83;;;2.38;;
45909;SDS011;31622;55.416;37.840;2023-07-20T18:51:57;4.90;;;2.85;;
45909;SDS011;31622;55.416;37.840;2023-07-20T18:54:24;6.82;;;3.17;;
45909;SDS011;31622;55.416;37.840;2023-07-20T18:56:49;6.70;;;2.65;;
45909;SDS011;31622;55.416;37.840;2023-07-20T18:59:17;7.72;;;3.13;;
45909;SDS011;31622;55.416;37.840;2023-07-20T19:01:42;7.50;;;3.10;;
45909;SDS011;31622;55.416;37.840;2023-07-20T19:04:08;8.25;;;3.80;;
45909;SDS011;31622;55.416;37.840;2023-07-20T19:06:34;8.80;;;3.90;;
45909;SDS011;31622;55.416;37.840;2023-07-20T19:09:00;7.70;;;4.07;;
45909;SDS011;31622;55.416;37.840;2023-07-20T19:11:25;7.78;;;3.58;;
45909;SDS011;31622;55.416;37.840;2023-07-20T19:13:51;9.15;;;4.10;;
45909;SDS011;31622;55.416;37.840;2023-07-20T19:16:17;6.90;;;3.70;;
45909;SDS011;31622;55.416;37.840;2023-07-20T19:18:42;8.60;;;3.78;;
45909;SDS011;31622;55.416;37.840;2023-07-20T19:21:08;7.75;;;4.15;;
45909;SDS011;31622;55.416;37.840;2023-07-20T19:23:34;7.55;;;3.65;;
45909;SDS011;31622;55.416;37.840;2023-07-20T19:26:07;9.75;;;3.92;;
45909;SDS011;31622;55.416;37.840;2023-07-20T19:28:33;6.47;;;3.60;;
45909;SDS011;31622;55.416;37.840;2023-07-20T19:31:00;6.38;;;3.97;;
45909;SDS011;31622;55.416;37.840;2023-07-20T19:33:26;7.95;;;3.70;;
45909;SDS011;31622;55.416;37.840;2023-07-20T19:35:52;9.85;;;3.90;;
45909;SDS011;31622;55.416;37.840;2023-07-20T19:38:26;11.02;;;3.80;;
45909;SDS011;31622;55.416;37.840;2023-07-20T19:40:53;15.65;;;4.30;;
45909;SDS011;31622;55.416;37.840;2023-07-20T19:43:22;9.38;;;4.05;;
45909;SDS011;31622;55.416;37.840;2023-07-20T19:45:50;8.93;;;4.15;;
45909;SDS011;31622;55.416;37.840;2023-07-20T19:48:16;14.45;;;4.45;;
45909;SDS011;31622;55.416;37.840;2023-07-20T19:50:45;11.23;;;4.53;;
45909;SDS011;31622;55.416;37.840;2023-07-20T19:53:16;7.20;;;3.78;;
45909;SDS011;31622;55.416;37.840;2023-07-20T19:55:42;12.63;;;3.80;;
45909;SDS011;31622;55.416;37.840;2023-07-20T19:58:08;7.70;;;3.33;;
45909;SDS011;31622;55.416;37.840;2023-07-20T20:00:41;9.07;;;3.90;;
45909;SDS011;31622;55.416;37.840;2023-07-20T20:03:07;11.18;;;3.78;;
45909;SDS011;31622;55.416;37.840;2023-07-20T20:05:34;10.00;;;4.10;;
45909;SDS011;31622;55.416;37.840;2023-07-20T20:08:04;11.25;;;4.53;;
45909;SDS011;31622;55.416;37.840;2023-07-20T20:10:33;12.35;;;3.88;;
45909;SDS011;31622;55.416;37.840;2023-07-20T20:12:59;8.60;;;3.78;;
45909;SDS011;31622;55.416;37.840;2023-07-20T20:15:25;12.20;;;4.40;;
45909;SDS011;31622;55.416;37.840;2023-07-20T20:17:52;11.43;;;4.15;;
45909;SDS011;31622;55.416;37.840;2023-07-20T20:20:19;11.27;;;3.90;;
45909;SDS011;31622;55.416;37.840;2023-07-20T20:22:44;8.52;;;4.05;;
45909;SDS011;31622;55.416;37.840;2023-07-20T20:25:10;10.82;;;4.05;;
45909;SDS011;31622;55.416;37.840;2023-07-20T20:27:36;9.48;;;4.25;;
45909;SDS011;31622;55.416;37.840;2023-07-20T20:30:05;11.15;;;4.03;;
45909;SDS011;31622;55.416;37.840;2023-07-20T20:32:32;11.50;;;4.03;;
45909;SDS011;31622;55.416;37.840;2023-07-20T20:35:02;8.50;;;3.55;;
45909;SDS011;31622;55.416;37.840;2023-07-20T20:37:30;10.15;;;3.58;;
45909;SDS011;31622;55.416;37.840;2023-07-20T20:39:55;7.70;;;3.90;;
45909;SDS011;31622;55.416;37.840;2023-07-20T20:42:21;10.10;;;3.78;;
45909;SDS011;31622;55.416;37.840;2023-07-20T20:44:47;9.98;;;4.22;;
45909;SDS011;31622;55.416;37.840;2023-07-20T20:47:13;8.43;;;3.50;;
45909;SDS011;31622;55.416;37.840;2023-07-20T20:49:41;8.30;;;3.55;;
45909;SDS011;31622;55.416;37.840;2023-07-20T20:52:10;8.55;;;3.38;;
45909;SDS011;31622;55.416;37.840;2023-07-20T20:54:40;6.90;;;3.75;;
45909;SDS011;31622;55.416;37.840;2023-07-20T20:57:06;9.43;;;3.83;;
45909;SDS011;31622;55.416;37.840;2023-07-20T20:59:31;5.15;;;3.30;;
45909;SDS011;31622;55.416;37.840;2023-07-20T21:01:57;6.10;;;3.30;;
45909;SDS011;31622;55.416;37.840;2023-07-20T21:04:26;7.35;;;3.30;;
45909;SDS011;31622;55.416;37.840;2023-07-20T21:06:51;7.18;;;3.60;;
45909;SDS011;31622;55.416;37.840;2023-07-20T21:09:17;6.93;;;3.00;;
45909;SDS011;31622;55.416;37.840;2023-07-20T21:11:43;7.45;;;3.50;;
45909;SDS011;31622;55.416;37.840;2023-07-20T21:14:08;7.13;;;3.45;;
45909;SDS011;31622;55.416;37.840;2023-07-20T21:16:34;7.93;;;3.10;;
45909;SDS011;31622;55.416;37.840;2023-07-20T21:19:00;6.35;;;3.20;;
45909;SDS011;31622;55.416;37.840;2023-07-20T21:21:27;7.78;;;3.28;;
45909;SDS011;31622;55.416;37.840;2023-07-20T21:23:52;6.68;;;3.08;;
45909;SDS011;31622;55.416;37.840;2023-07-20T21:26:18;6.55;;;3.10;;
45909;SDS011;31622;55.416;37.840;2023-07-20T21:28:45;6.30;;;3.08;;
45909;SDS011;31622;55.416;37.840;2023-07-20T21:31:11;5.35;;;2.90;;
45909;SDS011;31622;55.416;37.840;2023-07-20T21:33:38;4.82;;;3.10;;
45909;SDS011;31622;55.416;37.840;2023-07-20T21:36:04;5.85;;;2.90;;
45909;SDS011;31622;55.416;37.840;2023-07-20T21:38:33;6.45;;;2.78;;
45909;SDS011;31622;55.416;37.840;2023-07-20T21:41:03;5.70;;;2.90;;
45909;SDS011;31622;55.416;37.840;2023-07-20T21:43:33;6.60;;;2.90;;
45909;SDS011;31622;55.416;37.840;2023-07-20T21:45:59;5.38;;;2.92;;
45909;SDS011;31622;55.416;37.840;2023-07-20T21:48:25;5.15;;;2.70;;
45909;SDS011;31622;55.416;37.840;2023-07-20T21:50:51;4.85;;;2.40;;
45909;SDS011;31622;55.416;37.840;2023-07-20T21:53:17;5.93;;;2.63;;
45909;SDS011;31622;55.416;37.840;2023-07-20T21:55:43;4.85;;;2.25;;
45909;SDS011;31622;55.416;37.840;2023-07-20T21:58:10;4.28;;;2.70;;
45909;SDS011;31622;55.416;37.840;2023-07-20T22:00:37;4.03;;;2.42;;
45909;SDS011;31622;55.416;37.840;2023-07-20T22:03:03;5.47;;;2.58;;
45909;SDS011;31622;55.416;37.840;2023-07-20T22:05:29;5.20;;;2.25;;
45909;SDS011;31622;55.416;37.840;2023-07-20T22:07:55;4.68;;;2.47;;
45909;SDS011;31622;55.416;37.840;2023-07-20T22:10:21;4.00;;;2.40;;
45909;SDS011;31622;55.416;37.840;2023-07-20T22:12:47;4.25;;;2.47;;
45909;SDS011;31622;55.416;37.840;2023-07-20T22:15:13;3.72;;;2.13;;
45909;SDS011;31622;55.416;37.840;2023-07-20T22:17:40;5.18;;;2.28;;